Time;durP1;ratioP1;P1;durP2;ratioP2;P2;SDS_P1;SDS_P2;PMS_P1;PMS_P2;Temp;Humidity;BMP_temperature;BMP_pressure;BME280_temperature;BME280_humidity;BME280_pressure;Samples;Min_cycle;Max_cycle;Signal;HPM_P1;HPM_P2
2022/04/22 00:01:25;;;;;;;7.82;4.90;;;12.80;70.10;;;;;;5033730;28;20465;-68
2022/04/22 00:03:51;;;;;;;8.75;5.25;;;12.80;70.20;;;;;;5030913;28;20017;-68
2022/04/22 00:06:16;;;;;;;9.15;5.40;;;12.80;70.70;;;;;;5030323;28;20026;-67
2022/04/22 00:08:42;;;;;;;7.82;5.88;;;12.70;70.80;;;;;;5039466;28;20164;-67
2022/04/22 00:13:53;;;;;;;7.30;5.28;;;12.60;71.60;;;;;;5039934;28;20164;-68
2022/04/22 00:16:18;;;;;;;8.73;5.65;;;12.50;71.90;;;;;;5031223;28;20025;-68
2022/04/22 00:18:44;;;;;;;7.43;4.45;;;12.50;71.90;;;;;;5039097;28;20032;-68
2022/04/22 00:21:10;;;;;;;8.13;5.95;;;12.60;71.60;;;;;;5039088;28;20036;-68
2022/04/22 00:23:36;;;;;;;8.05;5.68;;;12.60;71.90;;;;;;5033714;28;20045;-68
2022/04/22 00:26:01;;;;;;;9.48;6.15;;;12.50;72.30;;;;;;5042145;28;20031;-68
2022/04/22 00:28:27;;;;;;;9.07;6.97;;;12.50;72.30;;;;;;5034709;28;20018;-68
2022/04/22 00:30:53;;;;;;;11.18;6.22;;;12.50;72.40;;;;;;5039227;28;20473;-68
2022/04/22 00:33:18;;;;;;;9.07;7.07;;;12.40;72.70;;;;;;5051578;28;20029;-68
2022/04/22 00:35:44;;;;;;;12.93;6.68;;;12.30;73.30;;;;;;5044013;28;20037;-68
2022/04/22 00:38:10;;;;;;;8.77;6.43;;;12.30;73.50;;;;;;5032129;28;20021;-67
2022/04/22 00:40:37;;;;;;;7.05;5.60;;;12.30;73.50;;;;;;5034743;28;20037;-68
2022/04/22 00:43:19;;;;;;;9.60;6.20;;;12.30;73.50;;;;;;5052889;28;20041;-69
2022/04/22 00:45:45;;;;;;;7.47;6.68;;;12.30;73.80;;;;;;5033325;28;20048;-68
2022/04/22 00:48:11;;;;;;;9.45;6.63;;;12.20;73.90;;;;;;5041518;28;20037;-68
2022/04/22 00:50:38;;;;;;;8.73;7.40;;;12.20;74.10;;;;;;5017976;28;20031;-68
2022/04/22 00:53:05;;;;;;;10.65;6.88;;;12.10;74.60;;;;;;5033143;28;20040;-68
2022/04/22 00:55:31;;;;;;;9.90;7.72;;;12.10;74.80;;;;;;5030195;28;20026;-68
2022/04/22 00:58:01;;;;;;;8.55;7.15;;;12.00;75.20;;;;;;5030676;28;20033;-67
2022/04/22 01:00:26;;;;;;;10.88;7.60;;;12.00;75.40;;;;;;5035632;28;20032;-68
2022/04/22 01:02:52;;;;;;;9.45;7.10;;;11.90;76.10;;;;;;5038312;28;20025;-68
2022/04/22 01:10:46;;;;;;;8.60;7.20;;;11.80;75.80;;;;;;5034949;28;20062;-68
2022/04/22 01:13:12;;;;;;;11.73;7.47;;;11.90;75.90;;;;;;5035854;28;20477;-68
2022/04/22 01:15:38;;;;;;;9.40;7.40;;;11.90;76.00;;;;;;5041848;28;20017;-68
2022/04/22 01:18:04;;;;;;;9.10;7.03;;;11.80;75.80;;;;;;5038090;28;20021;-68
2022/04/22 01:20:30;;;;;;;8.10;6.85;;;11.80;75.90;;;;;;5035654;28;20096;-68
2022/04/22 01:22:55;;;;;;;9.25;6.78;;;11.80;76.00;;;;;;5044100;28;20120;-68
2022/04/22 01:25:21;;;;;;;7.00;5.95;;;11.80;76.10;;;;;;5039989;28;20124;-68
2022/04/22 01:27:50;;;;;;;7.95;6.72;;;11.80;76.00;;;;;;5035348;28;20076;-68
2022/04/22 01:30:21;;;;;;;8.97;7.97;;;11.70;76.30;;;;;;5035617;28;20017;-68
2022/04/22 01:32:52;;;;;;;10.45;6.10;;;11.70;76.70;;;;;;5033848;28;20351;-68
2022/04/22 01:35:18;;;;;;;8.88;5.90;;;11.60;76.70;;;;;;5040443;28;20032;-68
2022/04/22 01:37:44;;;;;;;8.18;5.68;;;11.60;76.70;;;;;;5032587;28;20029;-68
2022/04/22 01:40:11;;;;;;;9.32;6.60;;;11.60;76.70;;;;;;5035317;28;20051;-68
2022/04/22 01:42:37;;;;;;;9.30;7.45;;;11.60;77.10;;;;;;5035624;28;20480;-68
2022/04/22 01:45:04;;;;;;;9.40;7.68;;;11.50;77.50;;;;;;5035856;28;20039;-68
2022/04/22 01:47:30;;;;;;;10.35;7.30;;;11.50;77.90;;;;;;5038234;28;20021;-68
2022/04/22 01:49:55;;;;;;;10.07;7.72;;;11.40;78.30;;;;;;5034758;28;20135;-69
2022/04/22 01:52:23;;;;;;;9.30;7.18;;;11.40;78.50;;;;;;5036277;28;20039;-68
2022/04/22 01:54:51;;;;;;;7.97;6.78;;;11.40;78.60;;;;;;5033013;28;20026;-68
2022/04/22 01:57:17;;;;;;;9.23;7.07;;;11.40;78.60;;;;;;5035930;28;20036;-68
2022/04/22 01:59:44;;;;;;;8.75;6.50;;;11.30;78.60;;;;;;5034928;28;20057;-67
2022/04/22 02:02:10;;;;;;;7.80;6.15;;;11.30;78.50;;;;;;5038061;28;20031;-68
2022/04/22 02:04:35;;;;;;;10.07;7.38;;;11.30;78.50;;;;;;5034444;28;20392;-68
2022/04/22 02:07:01;;;;;;;10.38;7.30;;;11.30;78.60;;;;;;5034530;28;20029;-68
2022/04/22 02:09:26;;;;;;;11.30;7.75;;;11.30;78.80;;;;;;5033276;28;20026;-69
2022/04/22 02:11:53;;;;;;;11.20;7.95;;;11.20;78.90;;;;;;5040138;28;20110;-68
2022/04/22 02:14:19;;;;;;;10.27;7.20;;;11.20;79.10;;;;;;5028894;28;20470;-68
2022/04/22 02:16:44;;;;;;;11.52;7.13;;;11.20;79.20;;;;;;5030150;28;20037;-68
2022/04/22 02:19:10;;;;;;;8.88;7.13;;;11.10;79.20;;;;;;5033036;28;20411;-68
2022/04/22 02:21:36;;;;;;;9.18;6.68;;;11.10;79.30;;;;;;5038116;28;20060;-68
2022/04/22 02:24:01;;;;;;;10.73;6.97;;;11.10;79.20;;;;;;5037449;28;20045;-68
2022/04/22 02:26:27;;;;;;;8.63;6.57;;;11.10;79.30;;;;;;5032744;28;20025;-68
2022/04/22 02:28:52;;;;;;;8.13;6.72;;;11.10;79.40;;;;;;5036963;28;20033;-68
2022/04/22 02:31:18;;;;;;;8.48;6.28;;;11.00;79.40;;;;;;5042988;28;20025;-68
2022/04/22 02:33:43;;;;;;;9.60;6.22;;;11.00;79.30;;;;;;5028394;28;20075;-68
2022/04/22 02:36:10;;;;;;;8.18;6.28;;;11.00;79.30;;;;;;5029720;28;20051;-68
2022/04/22 02:38:37;;;;;;;6.68;5.45;;;11.00;79.30;;;;;;5031276;28;20033;-67
2022/04/22 02:46:33;;;;;;;6.82;4.45;;;10.90;79.20;;;;;;5031395;28;20036;-68
2022/04/22 02:49:00;;;;;;;6.50;4.38;;;10.90;79.20;;;;;;5039182;28;20021;-68
2022/04/22 02:51:26;;;;;;;5.68;4.28;;;10.90;79.00;;;;;;5055435;28;20052;-68
2022/04/22 02:53:53;;;;;;;9.43;5.38;;;10.90;78.90;;;;;;5037135;28;20033;-68
2022/04/22 02:56:20;;;;;;;7.55;5.40;;;10.90;79.00;;;;;;5036431;28;20053;-68
2022/04/22 02:58:47;;;;;;;7.95;6.30;;;10.90;79.10;;;;;;5033771;28;20032;-68
2022/04/22 03:01:14;;;;;;;5.75;5.10;;;10.80;79.50;;;;;;5033637;28;20036;-68
2022/04/22 03:03:44;;;;;;;9.13;5.32;;;10.80;80.10;;;;;;5039086;28;20017;-68
2022/04/22 03:06:09;;;;;;;8.60;6.13;;;10.80;80.30;;;;;;5031103;28;20018;-68
2022/04/22 03:08:35;;;;;;;7.65;6.50;;;10.80;80.10;;;;;;5031672;28;20014;-68
2022/04/22 03:11:00;;;;;;;8.88;6.53;;;10.70;80.20;;;;;;5043082;28;20022;-68
2022/04/22 03:13:26;;;;;;;7.68;6.07;;;10.70;80.50;;;;;;5034838;28;20350;-68
2022/04/22 03:15:52;;;;;;;9.88;7.03;;;10.70;80.70;;;;;;5041177;28;20037;-68
2022/04/22 03:18:19;;;;;;;9.00;6.75;;;10.70;81.30;;;;;;5028111;28;20370;-68
2022/04/22 03:20:44;;;;;;;10.93;7.22;;;10.70;81.70;;;;;;5032238;28;20036;-67
2022/04/22 03:23:10;;;;;;;8.05;6.57;;;10.70;82.10;;;;;;5030962;28;20041;-68
2022/04/22 03:25:35;;;;;;;10.90;6.85;;;10.70;82.50;;;;;;5030412;28;20029;-68
2022/04/22 03:28:04;;;;;;;10.70;7.55;;;10.60;83.00;;;;;;5027995;28;20029;-68
2022/04/22 03:30:29;;;;;;;12.05;7.47;;;10.60;83.40;;;;;;5027990;28;20013;-68
2022/04/22 03:32:55;;;;;;;8.75;6.63;;;10.60;83.80;;;;;;5033754;28;20029;-68
2022/04/22 03:35:20;;;;;;;9.27;6.65;;;10.60;84.10;;;;;;5035603;28;20025;-68
2022/04/22 03:37:46;;;;;;;9.38;6.25;;;10.60;84.20;;;;;;5040822;28;20546;-68
2022/04/22 03:40:11;;;;;;;11.30;7.38;;;10.60;84.30;;;;;;5028681;28;20049;-68
2022/04/22 03:42:37;;;;;;;10.70;7.13;;;10.60;84.70;;;;;;5032551;28;20225;-68
2022/04/22 03:45:04;;;;;;;9.90;7.15;;;10.50;85.00;;;;;;5039987;28;20427;-68
2022/04/22 03:47:30;;;;;;;11.68;7.45;;;10.50;85.60;;;;;;5036735;28;20021;-68
2022/04/22 03:49:56;;;;;;;13.30;8.48;;;10.50;86.00;;;;;;5039876;28;20460;-68
2022/04/22 03:52:21;;;;;;;10.85;8.05;;;10.50;86.80;;;;;;5037034;28;20091;-68
2022/04/22 03:54:47;;;;;;;13.45;9.23;;;10.40;87.40;;;;;;5033132;28;20465;-68
2022/04/22 03:59:57;;;;;;;11.95;8.35;;;10.40;89.80;;;;;;5034838;28;20456;-68
2022/04/22 04:02:22;;;;;;;14.68;8.82;;;10.30;90.20;;;;;;5039055;28;20026;-68
2022/04/22 04:04:49;;;;;;;13.35;9.32;;;10.30;90.50;;;;;;5039509;28;20040;-68
2022/04/22 04:07:14;;;;;;;13.93;9.70;;;10.30;90.90;;;;;;5033820;28;20024;-68
2022/04/22 04:17:52;;;;;;;12.15;9.07;;;10.20;92.50;;;;;;5036910;28;20040;-68
2022/04/22 04:23:20;;;;;;;14.80;9.80;;;10.20;93.00;;;;;;5032411;28;20048;-68
2022/04/22 04:25:50;;;;;;;12.82;8.95;;;10.20;93.30;;;;;;5040656;28;20045;-67
2022/04/22 04:28:17;;;;;;;15.57;10.25;;;10.20;93.60;;;;;;5054234;28;20378;-68
2022/04/22 04:30:44;;;;;;;14.50;9.93;;;10.20;94.00;;;;;;5043005;28;20021;-68
2022/04/22 04:33:10;;;;;;;12.48;9.15;;;10.20;94.20;;;;;;5034366;28;20107;-68
2022/04/22 04:35:37;;;;;;;11.98;9.27;;;10.20;94.40;;;;;;5040864;28;20025;-68
2022/04/22 04:38:03;;;;;;;13.30;9.63;;;10.20;94.50;;;;;;5036287;28;20694;-68
2022/04/22 04:40:28;;;;;;;14.27;9.93;;;10.20;94.70;;;;;;5033385;28;20033;-68
2022/04/22 04:42:54;;;;;;;15.05;10.02;;;10.10;95.00;;;;;;5041481;28;20041;-68
2022/04/22 04:45:20;;;;;;;12.07;9.25;;;10.10;95.30;;;;;;5034461;28;20417;-68
2022/04/22 04:47:46;;;;;;;13.65;9.35;;;10.10;95.40;;;;;;5034911;28;20163;-67
2022/04/22 04:50:12;;;;;;;14.50;10.95;;;10.10;95.50;;;;;;5033205;28;20099;-68
2022/04/22 04:52:39;;;;;;;15.18;10.88;;;10.10;95.80;;;;;;5031018;28;20139;-68
2022/04/22 04:55:06;;;;;;;15.90;10.90;;;10.10;96.10;;;;;;5032163;28;20393;-68
2022/04/22 04:57:32;;;;;;;16.25;10.85;;;10.10;96.40;;;;;;5046670;28;20043;-68
2022/04/22 04:59:57;;;;;;;13.50;10.25;;;10.10;96.60;;;;;;5039035;28;20444;-68
2022/04/22 05:02:23;;;;;;;13.45;11.50;;;10.10;96.90;;;;;;5034735;28;20063;-68
2022/04/22 05:04:48;;;;;;;15.65;11.77;;;10.10;97.00;;;;;;5036943;28;20582;-69
2022/04/22 05:07:14;;;;;;;16.48;12.13;;;10.10;97.30;;;;;;5035581;28;20024;-68
2022/04/22 05:09:39;;;;;;;17.90;11.68;;;10.10;97.50;;;;;;5035610;28;20057;-67
2022/04/22 05:12:05;;;;;;;14.27;11.13;;;10.10;97.70;;;;;;5032955;28;20326;-68
2022/04/22 05:14:31;;;;;;;14.82;9.88;;;10.10;97.70;;;;;;5035679;28;20076;-68
2022/04/22 05:16:56;;;;;;;15.10;10.27;;;10.10;97.70;;;;;;5032548;28;20407;-68
2022/04/22 05:19:22;;;;;;;15.95;10.68;;;10.10;97.70;;;;;;5038418;28;20567;-67
2022/04/22 05:21:49;;;;;;;14.85;10.25;;;10.20;97.70;;;;;;5029748;28;20041;-68
2022/04/22 05:24:15;;;;;;;13.02;10.75;;;10.20;97.70;;;;;;5028273;28;20048;-68
2022/04/22 05:26:41;;;;;;;15.98;11.23;;;10.20;97.70;;;;;;5035344;28;20425;-68
2022/04/22 05:32:36;;;;;;;16.42;12.30;;;10.30;97.80;;;;;;5032681;28;20488;-67
2022/04/22 05:34:36;;;;;;;15.60;12.05;;;10.30;98.10;;;;;;5034699;28;20083;-68
2022/04/22 05:37:01;;;;;;;13.57;11.18;;;10.30;98.20;;;;;;5031790;28;20100;-67
2022/04/22 05:39:27;;;;;;;14.48;12.35;;;10.30;98.30;;;;;;5032453;28;20063;-67
2022/04/22 05:41:52;;;;;;;14.82;11.95;;;10.30;98.40;;;;;;5032609;28;20044;-67
2022/04/22 05:44:18;;;;;;;17.67;13.88;;;10.30;98.60;;;;;;5035888;28;20028;-68
2022/04/22 05:46:43;;;;;;;15.00;12.40;;;10.30;98.80;;;;;;5034523;28;20156;-67
2022/04/22 05:49:09;;;;;;;17.08;12.93;;;10.30;98.90;;;;;;5037572;28;20036;-68
2022/04/22 05:51:34;;;;;;;18.90;14.18;;;10.40;98.90;;;;;;5040061;28;20037;-68
2022/04/22 05:54:00;;;;;;;13.70;11.73;;;10.40;99.30;;;;;;5039844;28;20082;-68
2022/04/22 05:56:25;;;;;;;13.93;11.18;;;10.40;99.00;;;;;;5038792;28;20107;-67
2022/04/22 05:58:52;;;;;;;15.07;12.30;;;10.50;99.00;;;;;;5032025;28;20112;-67
2022/04/22 06:01:17;;;;;;;14.02;11.38;;;10.50;98.90;;;;;;5039812;28;20049;-68
2022/04/22 06:03:43;;;;;;;15.73;12.82;;;10.60;98.80;;;;;;5039629;28;20138;-67
2022/04/22 06:06:08;;;;;;;15.93;12.00;;;10.70;98.70;;;;;;5036566;28;20029;-68
2022/04/22 06:11:18;;;;;;;13.75;11.60;;;10.70;98.50;;;;;;5034334;28;20044;-68
2022/04/22 06:13:47;;;;;;;15.27;13.57;;;10.80;98.50;;;;;;5043627;28;20396;-68
2022/04/22 06:16:13;;;;;;;14.70;12.70;;;10.80;98.40;;;;;;5043209;28;20099;-67
2022/04/22 06:18:38;;;;;;;16.52;12.40;;;10.90;98.30;;;;;;5039362;28;20091;-68
2022/04/22 06:21:04;;;;;;;16.10;13.13;;;10.90;98.30;;;;;;5035597;28;20038;-67
2022/04/22 06:23:29;;;;;;;15.35;12.95;;;10.90;98.30;;;;;;5039951;28;20738;-67
2022/04/22 06:25:55;;;;;;;14.68;13.00;;;10.90;98.30;;;;;;5033279;28;20017;-68
2022/04/22 06:28:20;;;;;;;12.68;11.35;;;10.90;98.20;;;;;;5040249;28;20229;-68
2022/04/22 06:30:47;;;;;;;16.33;12.60;;;11.00;98.10;;;;;;5030445;28;20049;-67
2022/04/22 06:33:13;;;;;;;14.63;12.70;;;11.10;98.00;;;;;;5037597;28;20033;-68
2022/04/22 06:35:39;;;;;;;15.60;13.02;;;11.10;97.90;;;;;;5039951;28;20060;-67
2022/04/22 06:38:07;;;;;;;13.93;12.43;;;11.10;97.80;;;;;;5038792;28;20031;-67
2022/04/22 06:46:01;;;;;;;17.10;14.02;;;11.20;97.40;;;;;;5038347;28;20104;-68
2022/04/22 06:48:34;;;;;;;17.77;14.10;;;11.20;97.40;;;;;;5033633;28;20448;-68
2022/04/22 06:51:01;;;;;;;18.98;15.00;;;11.30;97.20;;;;;;5030960;28;20025;-68
2022/04/22 06:53:27;;;;;;;15.95;13.73;;;11.20;97.10;;;;;;5039395;28;20017;-67
2022/04/22 06:55:58;;;;;;;16.25;14.10;;;11.30;97.10;;;;;;5032205;28;20044;-68
2022/04/22 06:58:24;;;;;;;15.88;13.82;;;11.30;96.90;;;;;;5030566;28;20389;-67
2022/04/22 07:00:50;;;;;;;15.52;13.90;;;11.30;96.90;;;;;;5030173;28;20068;-68
2022/04/22 07:03:17;;;;;;;14.68;12.50;;;11.20;97.00;;;;;;5046974;28;20445;-67
2022/04/22 07:05:45;;;;;;;16.08;14.25;;;11.30;97.10;;;;;;5043496;28;20033;-67
2022/04/22 07:08:14;;;;;;;16.10;13.45;;;11.30;97.20;;;;;;5049657;28;20017;-67
2022/04/22 07:10:41;;;;;;;17.80;13.35;;;11.40;97.20;;;;;;5050174;28;20025;-67
2022/04/22 07:13:07;;;;;;;17.73;14.38;;;11.60;97.10;;;;;;5044851;28;20029;-67
2022/04/22 07:15:33;;;;;;;15.07;13.00;;;11.70;96.90;;;;;;5050124;28;20542;-67
2022/04/22 07:17:59;;;;;;;15.88;13.80;;;11.80;96.60;;;;;;5050353;28;20033;-68
2022/04/22 07:20:26;;;;;;;16.90;13.68;;;12.00;96.40;;;;;;5054511;28;20017;-67
2022/04/22 07:22:53;;;;;;;15.80;13.93;;;12.10;96.20;;;;;;5048398;28;20045;-68
2022/04/22 07:25:20;;;;;;;15.60;13.15;;;12.20;95.90;;;;;;5052205;28;20509;-67
2022/04/22 07:27:46;;;;;;;15.80;13.98;;;12.20;95.70;;;;;;5055968;28;20017;-68
2022/04/22 07:30:14;;;;;;;17.40;13.40;;;12.20;95.40;;;;;;5055422;28;20017;-68
2022/04/22 07:32:41;;;;;;;13.43;11.70;;;12.20;95.30;;;;;;5054118;28;20029;-68
2022/04/22 07:35:14;;;;;;;15.18;12.82;;;12.30;95.10;;;;;;5053028;28;20033;-67
2022/04/22 07:37:41;;;;;;;18.00;13.65;;;12.30;94.90;;;;;;5055165;28;20036;-68
2022/04/22 07:40:08;;;;;;;14.75;13.00;;;12.30;94.60;;;;;;5054375;28;20124;-68
2022/04/22 07:42:34;;;;;;;15.63;13.02;;;12.30;94.50;;;;;;5055608;28;20050;-67
2022/04/22 07:47:50;;;;;;;16.40;14.53;;;12.50;94.40;;;;;;5056002;28;20499;-67
2022/04/22 07:50:17;;;;;;;15.18;13.57;;;12.60;94.10;;;;;;5055485;28;20032;-67
2022/04/22 07:52:44;;;;;;;16.83;14.52;;;12.60;94.00;;;;;;5053530;28;20047;-68
2022/04/22 07:55:12;;;;;;;17.88;14.07;;;12.70;93.70;;;;;;5052250;28;20021;-67
2022/04/22 07:57:40;;;;;;;18.13;14.55;;;12.80;93.60;;;;;;5055062;28;20473;-68
2022/04/22 08:00:06;;;;;;;15.57;13.68;;;12.90;93.20;;;;;;5043140;28;20028;-68
2022/04/22 08:02:33;;;;;;;15.50;13.20;;;13.10;93.10;;;;;;5035125;28;20477;-68
2022/04/22 08:04:59;;;;;;;15.90;13.90;;;13.20;92.70;;;;;;5035131;28;20087;-68
2022/04/22 08:07:24;;;;;;;18.08;14.18;;;13.30;92.30;;;;;;5035346;28;20026;-68
2022/04/22 08:09:51;;;;;;;16.08;14.30;;;13.40;91.80;;;;;;5035091;28;20104;-68
2022/04/22 08:12:18;;;;;;;15.30;13.02;;;13.40;91.60;;;;;;5034625;28;20029;-68
2022/04/22 08:14:44;;;;;;;16.38;14.00;;;13.50;91.30;;;;;;5051026;28;20029;-67
2022/04/22 08:17:10;;;;;;;15.88;12.40;;;13.60;91.20;;;;;;5054196;28;20104;-67
2022/04/22 08:19:35;;;;;;;15.88;12.68;;;13.60;91.20;;;;;;5054944;28;20056;-68
2022/04/22 08:22:01;;;;;;;14.98;13.10;;;13.60;91.00;;;;;;5053349;28;20086;-66
2022/04/22 08:24:26;;;;;;;15.27;12.35;;;13.60;90.70;;;;;;5054948;28;20457;-68
2022/04/22 08:26:53;;;;;;;14.27;12.43;;;13.60;90.70;;;;;;5053428;28;20529;-68
2022/04/22 08:29:19;;;;;;;15.15;12.20;;;13.60;90.40;;;;;;5054180;28;20017;-67
2022/04/22 08:31:45;;;;;;;13.77;11.55;;;13.70;90.20;;;;;;5054584;28;20108;-67
2022/04/22 08:34:11;;;;;;;14.85;13.25;;;13.80;90.00;;;;;;5054667;28;20057;-67
2022/04/22 08:36:36;;;;;;;16.40;13.02;;;13.80;89.60;;;;;;5054500;28;20057;-67
2022/04/22 08:39:04;;;;;;;15.07;12.73;;;13.90;90.00;;;;;;5054377;28;20036;-67
2022/04/22 08:41:33;;;;;;;14.85;12.02;;;14.00;90.00;;;;;;5053928;28;20029;-68
2022/04/22 08:43:59;;;;;;;13.95;11.82;;;14.00;89.60;;;;;;5034389;28;20105;-68
2022/04/22 08:51:58;;;;;;;13.57;11.15;;;14.10;87.80;;;;;;5047728;28;20032;-67
2022/04/22 08:54:27;;;;;;;13.18;10.70;;;14.20;87.30;;;;;;5049939;28;20499;-67
2022/04/22 08:56:54;;;;;;;15.65;10.90;;;14.20;86.80;;;;;;5051298;28;20448;-68
2022/04/22 08:59:19;;;;;;;16.23;11.55;;;14.30;86.50;;;;;;5053021;28;20488;-68
2022/04/22 09:01:45;;;;;;;13.55;11.48;;;14.30;86.20;;;;;;5052743;28;20032;-67
2022/04/22 09:04:11;;;;;;;13.75;10.95;;;14.40;86.00;;;;;;5054120;28;20032;-67
2022/04/22 09:06:37;;;;;;;15.27;12.35;;;14.40;85.70;;;;;;5052767;28;20465;-67
2022/04/22 09:09:04;;;;;;;12.88;10.77;;;14.50;85.60;;;;;;5053944;28;20025;-68
2022/04/22 09:11:30;;;;;;;13.75;10.98;;;14.50;85.10;;;;;;5053684;28;20021;-68
2022/04/22 09:14:00;;;;;;;12.25;10.35;;;14.60;84.50;;;;;;5052618;28;20523;-67
2022/04/22 09:16:29;;;;;;;12.50;10.07;;;14.60;84.50;;;;;;5053862;28;20059;-68
2022/04/22 09:19:00;;;;;;;11.27;9.93;;;14.70;83.90;;;;;;5052703;28;20033;-68
2022/04/22 09:21:26;;;;;;;12.05;10.75;;;14.70;83.10;;;;;;5053647;28;20499;-67
2022/04/22 09:23:53;;;;;;;10.85;9.65;;;14.80;83.70;;;;;;5049875;28;20048;-67
2022/04/22 09:26:27;;;;;;;11.43;9.90;;;14.90;83.20;;;;;;5047584;28;20488;-67
2022/04/22 09:28:57;;;;;;;13.68;11.40;;;15.10;82.20;;;;;;5050695;28;20381;-68
2022/04/22 09:31:25;;;;;;;15.40;10.30;;;15.20;82.10;;;;;;5046415;28;20492;-68
2022/04/22 09:33:51;;;;;;;10.18;9.10;;;15.20;81.30;;;;;;5047741;28;20036;-68
2022/04/22 09:45:01;;;;;;;10.32;8.30;;;15.60;78.90;;;;;;5050313;28;20032;-68
2022/04/22 09:47:29;;;;;;;12.63;9.45;;;15.70;78.70;;;;;;5051560;28;20032;-67
2022/04/22 09:49:56;;;;;;;11.57;9.48;;;15.80;77.80;;;;;;5045639;28;20097;-67
2022/04/22 09:52:26;;;;;;;13.82;9.60;;;15.90;76.70;;;;;;5050231;28;20028;-67
2022/04/22 09:55:03;;;;;;;13.90;9.23;;;15.90;76.00;;;;;;5048622;28;20031;-68
2022/04/22 09:57:48;;;;;;;10.50;8.07;;;16.00;75.70;;;;;;5049809;28;20543;-68
2022/04/22 10:00:16;;;;;;;14.55;9.43;;;16.00;75.20;;;;;;5048652;28;20036;-68
2022/04/22 10:02:42;;;;;;;11.15;8.25;;;16.20;74.90;;;;;;5043010;28;20017;-67
2022/04/22 10:05:09;;;;;;;12.93;9.57;;;16.30;74.60;;;;;;5051133;28;20013;-67
2022/04/22 10:07:35;;;;;;;11.07;8.70;;;16.30;74.20;;;;;;5048358;28;20067;-67
2022/04/22 10:10:03;;;;;;;10.63;7.85;;;16.40;74.30;;;;;;5048574;28;20493;-68
2022/04/22 10:12:30;;;;;;;12.32;9.10;;;16.50;73.80;;;;;;5046843;28;20108;-68
2022/04/22 10:15:00;;;;;;;11.40;7.70;;;16.60;71.90;;;;;;5046662;28;20021;-68
2022/04/22 10:17:26;;;;;;;10.32;7.88;;;16.60;71.80;;;;;;5045123;28;20056;-68
2022/04/22 10:19:53;;;;;;;11.32;7.68;;;16.70;71.20;;;;;;5046855;28;20059;-67
2022/04/22 10:22:19;;;;;;;9.85;8.52;;;16.80;71.00;;;;;;5049408;28;20473;-67
2022/04/22 10:24:46;;;;;;;13.95;8.57;;;16.90;70.20;;;;;;5051719;28;20103;-68
2022/04/22 10:27:13;;;;;;;9.35;7.50;;;16.80;69.60;;;;;;5037001;28;20021;-68
2022/04/22 10:29:41;;;;;;;8.98;7.40;;;16.90;69.80;;;;;;5040883;28;20456;-68
2022/04/22 10:32:09;;;;;;;10.57;7.63;;;17.00;69.50;;;;;;5045506;28;20021;-68
2022/04/22 10:34:42;;;;;;;8.63;7.60;;;17.20;69.60;;;;;;5046003;28;20437;-68
2022/04/22 10:37:23;;;;;;;9.57;7.00;;;17.30;67.90;;;;;;5049278;28;20036;-68
2022/04/22 10:39:54;;;;;;;7.32;5.70;;;17.50;67.80;;;;;;5051492;28;20121;-67
2022/04/22 10:42:28;;;;;;;9.88;7.22;;;17.70;66.70;;;;;;5051730;28;20017;-67
2022/04/22 10:47:45;;;;;;;9.95;5.55;;;17.80;65.40;;;;;;5038624;28;20066;-68
2022/04/22 10:50:32;;;;;;;8.73;5.45;;;17.80;64.90;;;;;;5051930;28;20159;-68
2022/04/22 10:53:09;;;;;;;8.40;6.25;;;18.00;65.00;;;;;;5051845;28;20036;-68
2022/04/22 10:55:40;;;;;;;6.72;5.55;;;18.00;64.30;;;;;;5052024;28;20056;-68
2022/04/22 10:58:19;;;;;;;6.15;5.32;;;18.10;63.80;;;;;;5052014;28;20624;-68
2022/04/22 11:00:49;;;;;;;;;;;18.20;62.70;;;;;;5052189;28;20081;-68
2022/04/22 11:03:31;;;;;;;8.00;5.65;;;17.90;62.80;;;;;;5052136;28;19936;-68
2022/04/22 11:06:02;;;;;;;7.20;5.13;;;17.80;63.80;;;;;;5047523;28;20112;-67
2022/04/22 11:08:41;;;;;;;7.10;5.63;;;17.70;63.90;;;;;;5049900;28;20012;-68
2022/04/22 11:11:17;;;;;;;6.87;4.77;;;17.70;63.80;;;;;;5050078;28;20052;-68
2022/04/22 11:13:44;;;;;;;7.43;6.03;;;17.60;64.50;;;;;;5050096;28;20255;-68
2022/04/22 11:16:12;;;;;;;6.53;4.78;;;17.60;65.10;;;;;;5050370;28;20028;-68
2022/04/22 11:18:42;;;;;;;7.22;5.75;;;17.60;65.80;;;;;;5050203;28;20017;-68
2022/04/22 11:21:35;;;;;;;7.53;5.13;;;17.70;66.10;;;;;;5049999;28;20443;-68
2022/04/22 11:24:09;;;;;;;8.65;5.75;;;17.70;65.40;;;;;;5047130;28;20067;-68
2022/04/22 11:26:35;;;;;;;8.07;5.80;;;17.60;65.50;;;;;;5050399;28;20465;-68
2022/04/22 11:29:06;;;;;;;9.00;6.15;;;17.50;65.20;;;;;;5047250;28;20025;-68
2022/04/22 11:31:35;;;;;;;7.72;6.22;;;17.50;65.20;;;;;;5050438;28;20026;-68
2022/04/22 11:34:10;;;;;;;5.90;5.13;;;17.40;65.10;;;;;;5046966;28;20477;-68
2022/04/22 11:36:47;;;;;;;9.52;5.68;;;17.40;65.00;;;;;;5050206;28;20036;-67
2022/04/22 11:39:22;;;;;;;8.60;6.15;;;17.30;65.10;;;;;;5047376;28;20036;-67
2022/04/22 11:41:57;;;;;;;8.13;5.10;;;17.20;65.00;;;;;;5048930;28;20025;-68
2022/04/22 11:44:27;;;;;;;7.85;5.38;;;17.10;65.50;;;;;;5046564;28;20398;-68
2022/04/22 11:46:53;;;;;;;8.93;5.28;;;17.20;65.00;;;;;;5047137;28;20104;-68
2022/04/22 11:49:28;;;;;;;5.82;4.57;;;17.20;65.10;;;;;;5047573;28;20108;-68
2022/04/22 11:51:55;;;;;;;6.95;5.03;;;17.30;65.20;;;;;;5044384;28;20496;-68
2022/04/22 11:54:25;;;;;;;8.25;4.70;;;17.40;64.30;;;;;;5047671;28;20035;-67
2022/04/22 11:56:51;;;;;;;6.82;4.88;;;17.40;64.30;;;;;;5049802;28;20029;-68
2022/04/22 11:59:21;;;;;;;7.30;5.18;;;17.40;64.70;;;;;;5047738;28;20063;-67
2022/04/22 12:09:58;;;;;;;7.05;4.30;;;17.60;63.30;;;;;;5053422;28;20087;-67
2022/04/22 12:12:24;;;;;;;5.45;4.82;;;17.70;63.30;;;;;;5054935;28;20037;-68
2022/04/22 12:15:04;;;;;;;6.10;4.95;;;17.80;62.90;;;;;;5054754;28;20024;-68
2022/04/22 12:17:31;;;;;;;7.35;4.70;;;17.90;62.00;;;;;;5053690;28;20029;-68
2022/04/22 12:19:57;;;;;;;6.65;5.03;;;17.90;60.90;;;;;;5055039;28;20036;-68
2022/04/22 12:22:24;;;;;;;6.32;4.93;;;17.90;61.10;;;;;;5054548;28;20045;-67
2022/04/22 12:25:06;;;;;;;5.55;4.40;;;17.80;61.00;;;;;;5054831;28;20028;-67
2022/04/22 12:27:33;;;;;;;5.75;4.38;;;17.80;61.00;;;;;;5053558;28;20017;-68
2022/04/22 12:30:00;;;;;;;7.00;5.65;;;17.70;61.20;;;;;;5054378;28;20021;-68
2022/04/22 12:32:26;;;;;;;7.15;4.80;;;17.70;61.00;;;;;;5054805;28;20029;-67
2022/04/22 12:34:51;;;;;;;6.50;4.80;;;17.70;61.10;;;;;;5054256;28;20526;-68
2022/04/22 12:37:18;;;;;;;4.80;4.07;;;17.70;60.70;;;;;;5054596;28;20037;-68
2022/04/22 12:39:49;;;;;;;6.35;4.90;;;17.60;60.80;;;;;;5054441;28;20033;-67
2022/04/22 12:42:15;;;;;;;7.05;4.60;;;17.60;60.40;;;;;;5060406;28;20084;-67
2022/04/22 12:44:43;;;;;;;5.43;4.35;;;17.70;61.40;;;;;;5068273;28;20021;-68
2022/04/22 12:52:47;;;;;;;7.55;4.60;;;18.60;59.20;;;;;;5054555;28;20054;-67
2022/04/22 12:55:17;;;;;;;5.30;4.05;;;19.00;58.30;;;;;;5054382;28;20542;-68
2022/04/22 12:57:42;;;;;;;6.00;4.07;;;19.20;57.70;;;;;;5054094;28;20028;-68
2022/04/22 13:00:19;;;;;;;4.75;3.83;;;19.40;57.60;;;;;;5054122;28;20032;-68
2022/04/22 13:02:45;;;;;;;5.10;3.92;;;19.90;56.90;;;;;;5053707;28;20124;-68
2022/04/22 13:05:22;;;;;;;5.72;4.13;;;20.20;56.20;;;;;;5054161;28;20013;-68
2022/04/22 13:07:51;;;;;;;5.53;3.53;;;20.40;54.80;;;;;;5052797;28;20032;-68
2022/04/22 13:10:22;;;;;;;6.68;4.20;;;20.10;54.80;;;;;;5054034;28;20024;-68
2022/04/22 13:12:48;;;;;;;5.25;4.07;;;19.80;55.30;;;;;;5053804;28;20056;-68
2022/04/22 13:15:19;;;;;;;5.72;4.82;;;19.50;55.80;;;;;;5053794;28;20103;-68
2022/04/22 13:17:47;;;;;;;5.35;4.15;;;19.30;55.50;;;;;;5054013;28;20059;-67
2022/04/22 13:20:18;;;;;;;5.13;4.25;;;19.10;55.80;;;;;;5053949;28;20021;-68
2022/04/22 13:22:45;;;;;;;5.53;4.40;;;19.10;56.10;;;;;;5052054;28;20140;-68
2022/04/22 13:25:12;;;;;;;4.47;3.53;;;19.00;56.20;;;;;;5053659;28;20024;-67
2022/04/22 13:27:39;;;;;;;6.20;3.80;;;19.00;55.90;;;;;;5052851;28;20108;-68
2022/04/22 13:30:05;;;;;;;4.25;3.60;;;19.00;55.50;;;;;;5052375;28;20086;-68
2022/04/22 13:32:31;;;;;;;6.03;4.18;;;19.20;55.30;;;;;;5053593;28;20052;-68
2022/04/22 13:34:57;;;;;;;6.05;4.05;;;19.40;55.10;;;;;;5052307;28;20488;-68
2022/04/22 13:37:22;;;;;;;6.25;4.10;;;19.60;54.70;;;;;;5051348;28;20061;-68
2022/04/22 13:39:48;;;;;;;5.95;3.85;;;19.90;54.00;;;;;;5046733;28;20033;-68
2022/04/22 13:42:13;;;;;;;4.20;3.33;;;20.00;53.80;;;;;;5051498;28;20162;-68
2022/04/22 13:52:52;;;;;;;3.72;2.97;;;20.90;52.00;;;;;;5049086;28;20128;-68
2022/04/22 13:55:17;;;;;;;8.68;3.90;;;20.90;52.00;;;;;;5048882;28;20516;-68
2022/04/22 13:57:43;;;;;;;4.95;3.95;;;20.80;51.70;;;;;;5051161;28;20021;-68
2022/04/22 14:00:10;;;;;;;6.47;3.50;;;20.70;51.80;;;;;;5051464;28;20381;-68